createdAt,value
2019-03-13T00:04:31.009Z,4.7
2019-03-13T00:09:27.584Z,4.1
2019-03-13T00:14:24.069Z,4.7
2019-03-13T00:19:20.088Z,4.6
2019-03-13T00:24:17.078Z,4
2019-03-13T00:29:13.536Z,4.6
2019-03-13T00:34:10.036Z,3.9
2019-03-13T00:39:06.434Z,4.7
2019-03-13T00:44:02.851Z,4.7
2019-03-13T00:48:59.536Z,4
2019-03-13T00:53:56.342Z,4
2019-03-13T00:58:52.198Z,4.6
2019-03-13T01:03:48.786Z,3.9
2019-03-13T01:08:44.941Z,4.6
2019-03-13T01:13:41.464Z,4.6
2019-03-13T01:18:38.446Z,3.9
2019-03-13T01:23:34.690Z,4.5
2019-03-13T01:28:30.643Z,4.5
2019-03-13T01:33:26.814Z,4.5
2019-03-13T01:38:23.327Z,4.6
2019-03-13T01:43:19.787Z,4.6
2019-03-13T01:48:16.493Z,3.9
2019-03-13T01:53:12.813Z,4.5
2019-03-13T01:58:09.191Z,4.6
2019-03-13T02:03:05.683Z,4.4
2019-03-13T02:08:02.067Z,4.4
2019-03-13T02:12:58.324Z,4.3
2019-03-13T02:17:55.128Z,3.7
2019-03-13T02:22:51.929Z,3.7
2019-03-13T02:27:48.109Z,4.3
2019-03-13T02:32:44.576Z,4.4
2019-03-13T02:37:40.698Z,4.4
2019-03-13T02:42:37.183Z,4.4
2019-03-13T02:47:33.480Z,4.4
2019-03-13T02:52:30.452Z,3.8
2019-03-13T03:02:23.726Z,3.7
2019-03-13T03:07:20.530Z,3.8
2019-03-13T03:12:17.549Z,3.8
2019-03-13T03:17:13.670Z,3.9
2019-03-13T03:22:10.113Z,4.6
2019-03-13T03:27:06.605Z,4.7
2019-03-13T03:32:03.494Z,4.1
2019-03-13T03:36:59.448Z,4.8
2019-03-13T03:41:56.518Z,4.2
2019-03-13T03:46:52.963Z,4.2
2019-03-13T03:51:50.007Z,4.2
2019-03-13T03:56:46.828Z,4.8
2019-03-13T04:01:43.715Z,4.2
2019-03-13T04:06:39.966Z,4.8
2019-03-13T04:11:35.785Z,4.8
2019-03-13T04:16:32.155Z,4.8
2019-03-13T04:21:29.165Z,4.1
2019-03-13T04:26:25.407Z,4.2
2019-03-13T04:31:21.645Z,4.7
2019-03-13T04:36:17.966Z,4.7
2019-03-13T04:41:14.519Z,4.7
2019-03-13T04:46:10.804Z,4.8
2019-03-13T04:51:07.642Z,4.1
2019-03-13T04:56:04.114Z,4.8
2019-03-13T05:01:00.805Z,4.7
2019-03-13T05:05:57.432Z,4.8
2019-03-13T05:10:53.799Z,4.8
2019-03-13T05:15:50.113Z,4.9
2019-03-13T05:20:46.451Z,4.9
2019-03-13T05:25:42.681Z,5
2019-03-13T05:30:38.955Z,5
2019-03-13T05:35:35.390Z,5.1
2019-03-13T05:40:31.641Z,5.2
2019-03-13T05:45:27.502Z,4.6
2019-03-13T05:50:24.240Z,4.7
2019-03-13T05:55:20.994Z,4.7
2019-03-13T06:00:17.274Z,5.4
2019-03-13T06:05:13.408Z,5.4
2019-03-13T06:10:09.519Z,5.4
2019-03-13T06:15:05.849Z,5.4
2019-03-13T06:20:02.610Z,4.7
2019-03-13T06:24:58.702Z,5.2
2019-03-13T06:29:55.164Z,4.8
2019-03-13T06:34:51.621Z,5.5
2019-03-13T06:39:47.803Z,5.4
2019-03-13T06:44:43.978Z,5.4
2019-03-13T06:49:40.393Z,5.5
2019-03-13T06:54:36.937Z,5
2019-03-13T06:59:33.429Z,5.7
2019-03-13T07:04:29.851Z,5.7
2019-03-13T07:09:26.158Z,5.8
2019-03-13T07:14:22.972Z,5.3
2019-03-13T07:19:19.379Z,5.3
2019-03-13T07:24:15.705Z,6
2019-03-13T07:29:12.760Z,6.1
2019-03-13T07:34:08.744Z,5.6
2019-03-13T07:39:08.972Z,6.3
2019-03-13T07:44:04.974Z,6.3
2019-03-13T07:49:01.552Z,6.4
2019-03-13T07:53:58.196Z,6.5
2019-03-13T07:58:54.651Z,6.6
2019-03-13T08:03:51.750Z,6
2019-03-13T08:08:48.024Z,6.7
2019-03-13T08:13:44.438Z,6.8
2019-03-13T08:18:40.917Z,6.2
2019-03-13T08:23:37.072Z,6.9
2019-03-13T08:28:33.296Z,7
2019-03-13T08:33:29.703Z,7.1
2019-03-13T08:38:26.256Z,7.1
2019-03-13T08:43:22.635Z,7.2
2019-03-13T08:48:19.239Z,7.3
2019-03-13T08:53:15.727Z,7.4
2019-03-13T08:58:12.058Z,7.5
2019-03-13T09:03:08.532Z,7.6
2019-03-13T09:08:05.110Z,7.6
2019-03-13T09:13:01.993Z,7.6
2019-03-13T09:17:57.866Z,7.7
2019-03-13T09:22:54.244Z,7.8
2019-03-13T09:27:50.741Z,7.9
2019-03-13T09:32:47.186Z,7.4
2019-03-13T09:37:43.687Z,7.3
2019-03-13T09:42:39.847Z,7.6
2019-03-13T09:47:35.965Z,7.6
2019-03-13T09:52:33.075Z,8.2
2019-03-13T09:57:29.816Z,8.4
2019-03-13T10:02:26.253Z,7.8
2019-03-13T10:07:22.400Z,8
2019-03-13T10:12:18.924Z,8.3
2019-03-13T10:17:15.467Z,8.3
2019-03-13T10:22:11.784Z,8.4
2019-03-13T10:27:08.125Z,8.6
2019-03-13T10:32:04.476Z,8.7
2019-03-13T10:37:00.757Z,8.7
2019-03-13T10:41:58.826Z,8.9
2019-03-13T10:46:53.858Z,9
2019-03-13T10:51:50.263Z,9.2
2019-03-13T10:56:46.771Z,9.3
2019-03-13T11:01:43.426Z,9.4
2019-03-13T11:06:39.807Z,9.4
2019-03-13T11:11:36.166Z,9.5
2019-03-13T11:16:32.687Z,9.7
2019-03-13T11:21:29.340Z,9.6
2019-03-13T11:26:25.439Z,10
2019-03-13T11:31:22.217Z,10.1
2019-03-13T11:36:18.771Z,10
2019-03-13T11:41:15.146Z,9.9
2019-03-13T11:46:11.883Z,9.9
2019-03-13T11:51:08.357Z,9.9
2019-03-13T11:56:04.993Z,10.1
2019-03-13T12:01:01.119Z,10.3
2019-03-13T12:05:57.475Z,10.6
2019-03-13T12:10:54.003Z,11.4
2019-03-13T12:15:50.484Z,11
2019-03-13T12:20:48.492Z,11.3
2019-03-13T12:25:44.650Z,10.6
2019-03-13T12:30:40.963Z,10.7
2019-03-13T12:35:37.496Z,10.7
2019-03-13T12:40:34.572Z,11.2
2019-03-13T12:45:30.857Z,11.1
2019-03-13T12:50:26.720Z,10.4
2019-03-13T12:55:23.228Z,10.4
2019-03-13T13:00:20.220Z,11
2019-03-13T13:05:16.719Z,10.6
2019-03-13T13:10:13.111Z,10.5
2019-03-13T13:15:09.348Z,10.3
2019-03-13T13:20:05.563Z,10.2
2019-03-13T13:25:02.088Z,10.1
2019-03-13T13:29:58.341Z,10.1
2019-03-13T13:34:54.974Z,10.1
2019-03-13T13:39:51.382Z,10.1
2019-03-13T13:44:48.103Z,10
2019-03-13T13:49:44.341Z,9.7
2019-03-13T13:54:40.787Z,9.9
2019-03-13T13:59:36.855Z,9.9
2019-03-13T14:04:33.414Z,10.1
2019-03-13T14:09:30.497Z,10.7
2019-03-13T14:14:27.105Z,10.1
2019-03-13T14:19:23.497Z,10
2019-03-13T14:24:19.985Z,10.6
2019-03-13T14:29:16.169Z,10
2019-03-13T14:34:12.703Z,9.9
2019-03-13T14:39:09.029Z,9.8
2019-03-13T14:44:05.403Z,9.7
2019-03-13T14:49:01.527Z,8.9
2019-03-13T14:53:58.257Z,9.6
2019-03-13T14:58:54.713Z,9.7
2019-03-13T15:03:51.156Z,9.6
2019-03-13T15:08:47.448Z,9.6
2019-03-13T15:13:43.959Z,9.5
2019-03-13T15:18:40.459Z,9.5
2019-03-13T15:23:37.253Z,10.1
2019-03-13T15:28:33.806Z,9.6
2019-03-13T15:33:30.307Z,9.7
2019-03-13T15:38:26.778Z,9.7
2019-03-13T15:43:23.204Z,10.1
2019-03-13T15:48:19.621Z,9.5
2019-03-13T15:53:15.480Z,9.3
2019-03-13T15:58:11.838Z,9.3
2019-03-13T16:03:08.277Z,8.8
2019-03-13T16:08:04.648Z,9.2
2019-03-13T16:13:01.274Z,9.1
2019-03-13T16:17:57.567Z,9
2019-03-13T16:27:50.499Z,8.9
2019-03-13T16:32:47.234Z,8.8
2019-03-13T16:37:43.310Z,8.8
2019-03-13T16:42:39.350Z,8.7
2019-03-13T16:47:35.896Z,8.6
2019-03-13T16:52:32.501Z,8.6
2019-03-13T16:57:28.936Z,8.5
2019-03-13T17:02:25.495Z,8.5
2019-03-13T17:07:21.799Z,8.4
2019-03-13T17:12:18.337Z,8.4
2019-03-13T17:17:14.665Z,8.3
2019-03-13T17:22:11.119Z,8.8
2019-03-13T17:27:07.313Z,8.1
2019-03-13T17:32:03.635Z,8.1
2019-03-13T17:37:00.039Z,8.1
2019-03-13T17:41:56.506Z,8
2019-03-13T17:46:53.021Z,8
2019-03-13T17:51:48.856Z,8
2019-03-13T17:56:45.196Z,7.9
2019-03-13T18:01:41.966Z,8.5
2019-03-13T18:06:36.938Z,7.8
2019-03-13T18:11:33.414Z,7.8
2019-03-13T18:16:29.809Z,7.8
2019-03-13T18:21:26.419Z,7.7
2019-03-13T18:26:22.824Z,7.7
2019-03-13T18:31:19.184Z,7.7
2019-03-13T18:36:14.432Z,7.4
2019-03-13T18:41:10.192Z,7.6
2019-03-13T18:46:10.582Z,7
2019-03-13T18:51:07.453Z,7.5
2019-03-13T18:56:03.460Z,7.3
2019-03-13T19:01:00.504Z,1.7
2019-03-13T19:06:00.748Z,7.4
2019-03-13T19:10:56.059Z,7.4
2019-03-13T19:15:52.498Z,8
2019-03-13T19:20:49.111Z,7.4
2019-03-13T19:25:45.595Z,7.4
2019-03-13T19:30:42.043Z,7.3
2019-03-13T19:35:38.886Z,7.1
2019-03-13T19:40:35.426Z,7.3
2019-03-13T19:45:31.532Z,7.9
2019-03-13T19:50:28.463Z,7.9
2019-03-13T19:55:24.600Z,7.9
2019-03-13T20:00:20.966Z,7.8
2019-03-13T20:05:17.026Z,7.8
2019-03-13T20:10:13.645Z,7.8
2019-03-13T20:15:10.220Z,7.8
2019-03-13T20:20:06.786Z,7.8
2019-03-13T20:25:03.499Z,7.8
2019-03-13T20:30:00.018Z,7.8
2019-03-13T20:34:56.856Z,7.7
2019-03-13T20:39:53.319Z,7.1
2019-03-13T20:44:49.744Z,7.4
2019-03-13T20:49:46.170Z,7.6
2019-03-13T20:54:42.661Z,7
2019-03-13T20:59:39.011Z,7.4
2019-03-13T21:04:36.019Z,7.4
2019-03-13T21:09:32.290Z,6.8
2019-03-13T21:14:28.572Z,6.9
2019-03-13T21:19:25.647Z,7.6
2019-03-13T21:24:21.886Z,7
2019-03-13T21:29:18.295Z,7.2
2019-03-13T21:34:14.421Z,7.5
2019-03-13T21:39:10.361Z,6.9
2019-03-13T21:44:06.481Z,6.8
2019-03-13T21:49:03.463Z,6.8
2019-03-13T21:54:00.281Z,7.5
2019-03-13T21:58:56.636Z,7.5
2019-03-13T22:03:53.714Z,7.3
2019-03-13T22:08:49.971Z,7.5
2019-03-13T22:13:46.103Z,7.6
2019-03-13T22:18:42.683Z,7.6
2019-03-13T22:23:38.847Z,7.6
2019-03-13T22:28:35.288Z,7.6
2019-03-13T22:33:31.644Z,7.6
2019-03-13T22:38:27.969Z,7.6
2019-03-13T22:43:24.151Z,7.6
2019-03-13T22:48:21.013Z,6.9
2019-03-13T22:53:17.510Z,7.6
2019-03-13T22:58:14.078Z,7.4
2019-03-13T23:03:10.556Z,7.6
2019-03-13T23:08:07.134Z,7.6
2019-03-13T23:13:03.789Z,7.7
2019-03-13T23:18:00.597Z,7.6
2019-03-13T23:22:57.345Z,7.6
2019-03-13T23:27:53.745Z,7.5
2019-03-13T23:32:50.132Z,6.9
2019-03-13T23:37:46.500Z,7.3
2019-03-13T23:42:43.035Z,7.3
2019-03-13T23:47:39.547Z,7.2
2019-03-13T23:52:36.162Z,7
2019-03-13T23:57:32.547Z,5.4
